createdAt,value
2019-04-03T00:02:18.357Z,76.23
2019-04-03T00:04:49.181Z,76.68
2019-04-03T00:07:19.823Z,77.53
2019-04-03T00:09:50.537Z,77.17
2019-04-03T00:12:21.905Z,77.41
2019-04-03T00:14:52.558Z,77.72
2019-04-03T00:17:23.278Z,77.85
2019-04-03T00:19:56.334Z,78.40
2019-04-03T00:22:26.946Z,77.47
2019-04-03T00:24:57.908Z,74.39
2019-04-03T00:27:28.556Z,73.78
2019-04-03T00:29:59.341Z,72.99
2019-04-03T00:32:30.036Z,72.12
2019-04-03T00:35:00.657Z,71.63
2019-04-03T00:37:31.720Z,70.88
2019-04-03T00:40:02.345Z,70.92
2019-04-03T00:42:33.104Z,71.41
2019-04-03T00:45:03.719Z,72.47
2019-04-03T00:47:34.794Z,72.04
2019-04-03T00:50:06.053Z,71.43
2019-04-03T00:52:37.616Z,71.72
2019-04-03T00:55:08.206Z,72.98
2019-04-03T00:57:41.508Z,73.93
2019-04-03T01:00:14.529Z,74.52
2019-04-03T01:02:45.259Z,74.03
2019-04-03T01:05:15.995Z,74.47
2019-04-03T01:07:47.334Z,74.84
2019-04-03T01:10:20.739Z,75.47
2019-04-03T01:12:52.740Z,75.12
2019-04-03T01:15:23.508Z,77.14
2019-04-03T01:17:54.146Z,79.28
2019-04-03T01:20:25.114Z,78.15
2019-04-03T01:22:55.748Z,78.96
2019-04-03T01:25:26.372Z,78.61
2019-04-03T01:28:00.128Z,79.59
2019-04-03T01:30:32.509Z,79.39
2019-04-03T01:33:03.567Z,80.52
2019-04-03T01:35:34.197Z,81.93
2019-04-03T01:38:06.470Z,80.72
2019-04-03T01:40:37.285Z,81.12
2019-04-03T01:43:07.982Z,79.75
2019-04-03T01:45:38.716Z,79.28
2019-04-03T01:48:10.125Z,79.46
2019-04-03T01:50:40.919Z,80.48
2019-04-03T01:53:11.572Z,81.25
2019-04-03T01:55:42.212Z,81.33
2019-04-03T01:58:12.916Z,82.00
2019-04-03T02:00:43.590Z,82.52
2019-04-03T02:03:14.456Z,81.72
2019-04-03T02:05:45.086Z,82.12
2019-04-03T02:08:15.888Z,82.58
2019-04-03T02:10:48.231Z,82.70
2019-04-03T02:13:21.137Z,84.31
2019-04-03T02:15:52.556Z,84.30
2019-04-03T02:18:25.319Z,84.28
2019-04-03T02:20:57.759Z,83.86
2019-04-03T02:23:28.916Z,85.56
2019-04-03T02:26:02.419Z,84.53
2019-04-03T02:28:35.276Z,84.66
2019-04-03T02:31:05.947Z,85.23
2019-04-03T02:33:36.576Z,85.22
2019-04-03T02:36:11.030Z,84.92
2019-04-03T02:38:42.621Z,85.23
2019-04-03T02:41:13.270Z,85.86
2019-04-03T02:43:46.284Z,86.25
2019-04-03T02:46:16.955Z,85.85
2019-04-03T02:48:47.836Z,84.18
2019-04-03T02:51:19.673Z,82.93
2019-04-03T02:53:51.385Z,82.35
2019-04-03T02:56:22.354Z,82.52
2019-04-03T02:58:54.799Z,83.57
2019-04-03T03:01:25.789Z,84.01
2019-04-03T03:03:56.437Z,83.67
2019-04-03T03:06:27.300Z,84.61
2019-04-03T03:08:58.416Z,84.55
2019-04-03T03:11:29.720Z,84.81
2019-04-03T03:14:00.550Z,84.17
2019-04-03T03:16:31.489Z,83.91
2019-04-03T03:19:05.375Z,83.78
2019-04-03T03:21:37.535Z,83.46
2019-04-03T03:24:08.723Z,82.93
2019-04-03T03:26:39.411Z,83.08
2019-04-03T03:29:17.646Z,82.90
2019-04-03T03:32:05.319Z,83.60
2019-04-03T03:34:16.829Z,83.96
2019-04-03T03:36:48.857Z,83.57
2019-04-03T03:39:19.905Z,83.64
2019-04-03T03:41:50.584Z,83.39
2019-04-03T03:44:22.806Z,84.22
2019-04-03T03:46:53.591Z,84.79
2019-04-03T03:49:25.470Z,85.36
2019-04-03T03:51:57.025Z,84.91
2019-04-03T03:54:27.913Z,85.22
2019-04-03T03:57:04.351Z,84.74
2019-04-03T03:59:32.037Z,85.05
2019-04-03T04:02:05.329Z,85.31
2019-04-03T04:04:35.154Z,85.76
2019-04-03T04:07:06.161Z,86.24
2019-04-03T04:09:36.758Z,86.30
2019-04-03T04:12:08.013Z,86.58
2019-04-03T04:14:38.726Z,86.78
2019-04-03T04:17:15.100Z,86.94
2019-04-03T04:19:41.761Z,87.02
2019-04-03T04:22:15.545Z,86.68
2019-04-03T04:24:44.938Z,87.33
2019-04-03T04:27:27.136Z,87.62
2019-04-03T04:29:58.097Z,87.87
2019-04-03T04:32:29.133Z,87.69
2019-04-03T04:34:59.785Z,87.81
2019-04-03T04:37:30.465Z,87.90
2019-04-03T04:40:07.763Z,88.16
2019-04-03T04:42:38.433Z,88.60
2019-04-03T04:45:09.801Z,88.94
2019-04-03T04:47:42.350Z,88.74
2019-04-03T04:50:13.269Z,88.62
2019-04-03T04:52:44.497Z,88.83
2019-04-03T04:55:15.220Z,88.92
2019-04-03T04:57:45.881Z,88.35
2019-04-03T05:00:16.868Z,88.83
2019-04-03T05:02:48.837Z,88.84
2019-04-03T05:05:21.435Z,89.15
2019-04-03T05:07:52.454Z,89.44
2019-04-03T05:10:23.510Z,89.32
2019-04-03T05:12:54.340Z,89.53
2019-04-03T05:15:27.508Z,89.68
2019-04-03T05:17:58.379Z,89.38
2019-04-03T05:20:29.076Z,89.65
2019-04-03T05:23:04.372Z,89.79
2019-04-03T05:25:35.145Z,90.42
2019-04-03T05:28:05.762Z,90.26
2019-04-03T05:30:40.453Z,90.63
2019-04-03T05:33:11.874Z,90.84
2019-04-03T05:35:45.641Z,91.09
2019-04-03T05:38:21.699Z,91.12
2019-04-03T05:40:51.619Z,91.07
2019-04-03T05:43:22.654Z,91.39
2019-04-03T05:45:53.300Z,91.46
2019-04-03T05:48:24.017Z,91.08
2019-04-03T05:50:57.640Z,91.12
2019-04-03T05:53:30.295Z,91.22
2019-04-03T05:56:02.284Z,91.15
2019-04-03T05:58:33.068Z,90.56
2019-04-03T06:01:06.417Z,91.11
2019-04-03T06:03:44.286Z,91.27
2019-04-03T06:06:17.196Z,91.50
2019-04-03T06:08:51.837Z,91.94
2019-04-03T06:11:24.973Z,91.59
2019-04-03T06:13:55.613Z,90.96
2019-04-03T06:16:26.429Z,93.07
2019-04-03T06:18:59.958Z,93.12
2019-04-03T06:21:30.786Z,92.23
2019-04-03T06:24:01.992Z,91.57
2019-04-03T06:26:33.067Z,90.86
2019-04-03T06:29:04.953Z,89.86
2019-04-03T06:31:36.098Z,88.98
2019-04-03T06:34:08.126Z,88.42
2019-04-03T06:36:42.752Z,87.62
2019-04-03T06:39:14.469Z,87.46
2019-04-03T06:41:51.239Z,87.56
2019-04-03T06:44:25.642Z,87.51
2019-04-03T06:46:56.469Z,86.31
2019-04-03T06:49:27.140Z,86.70
2019-04-03T06:52:00.270Z,86.58
2019-04-03T06:54:33.697Z,85.99
2019-04-03T06:57:04.323Z,85.61
2019-04-03T06:59:35.301Z,84.17
2019-04-03T07:02:07.767Z,83.37
2019-04-03T07:04:41.729Z,83.14
2019-04-03T07:07:12.380Z,81.97
2019-04-03T07:09:44.883Z,81.10
2019-04-03T07:12:17.756Z,81.33
2019-04-03T07:14:51.409Z,79.08
2019-04-03T07:17:26.231Z,78.50
2019-04-03T07:19:56.946Z,78.00
2019-04-03T07:22:28.318Z,77.78
2019-04-03T07:24:59.340Z,77.26
2019-04-03T07:27:30.333Z,74.91
2019-04-03T07:30:21.763Z,74.34
2019-04-03T07:33:05.822Z,73.04
2019-04-03T07:35:47.052Z,72.83
2019-04-03T07:38:18.102Z,72.98
2019-04-03T07:40:53.151Z,70.60
2019-04-03T07:43:26.352Z,68.46
2019-04-03T07:46:09.154Z,69.69
2019-04-03T07:48:40.424Z,68.92
2019-04-03T07:51:12.944Z,70.25
2019-04-03T07:53:48.893Z,68.22
2019-04-03T07:56:19.319Z,65.31
2019-04-03T07:58:53.594Z,64.64
2019-04-03T08:01:24.814Z,64.62
2019-04-03T08:03:55.504Z,65.76
2019-04-03T08:06:26.734Z,64.00
2019-04-03T08:09:07.998Z,63.33
2019-04-03T08:11:32.427Z,61.84
2019-04-03T08:14:02.837Z,65.57
2019-04-03T08:16:33.468Z,67.15
2019-04-03T08:19:04.079Z,67.00
2019-04-03T08:21:34.954Z,67.31
2019-04-03T08:24:08.032Z,67.05
2019-04-03T08:26:51.966Z,67.13
2019-04-03T08:29:23.767Z,65.07
2019-04-03T08:32:13.737Z,64.61
2019-04-03T08:34:48.945Z,62.60
2019-04-03T08:37:29.535Z,62.76
2019-04-03T08:39:52.149Z,64.61
2019-04-03T08:42:23.338Z,65.00
2019-04-03T08:44:56.875Z,63.79
2019-04-03T08:47:27.548Z,64.73
2019-04-03T08:50:01.357Z,62.39
2019-04-03T08:52:32.476Z,63.45
2019-04-03T08:55:03.760Z,63.82
2019-04-03T08:57:34.815Z,63.39
2019-04-03T09:00:10.244Z,63.25
2019-04-03T09:02:43.663Z,63.49
2019-04-03T09:05:14.504Z,63.06
2019-04-03T09:07:45.528Z,64.42
2019-04-03T09:10:16.991Z,64.18
2019-04-03T09:12:47.975Z,63.72
2019-04-03T09:15:19.127Z,63.30
2019-04-03T09:17:49.917Z,62.64
2019-04-03T09:20:20.591Z,63.50
2019-04-03T09:22:53.845Z,63.83
2019-04-03T09:25:25.328Z,63.15
2019-04-03T09:27:56.241Z,63.46
2019-04-03T09:30:28.675Z,63.17
2019-04-03T09:33:03.720Z,61.81
2019-04-03T09:35:34.371Z,62.46
2019-04-03T09:38:09.538Z,62.84
2019-04-03T09:40:39.612Z,62.43
2019-04-03T09:43:13.071Z,61.94
2019-04-03T09:45:44.263Z,61.78
2019-04-03T09:48:19.234Z,61.97
2019-04-03T09:50:50.390Z,60.91
2019-04-03T09:53:21.386Z,62.11
2019-04-03T09:55:52.464Z,61.20
2019-04-03T09:58:23.138Z,60.63
2019-04-03T10:01:18.406Z,61.41
2019-04-03T10:04:05.981Z,58.64
2019-04-03T10:06:55.256Z,58.32
2019-04-03T10:10:09.369Z,57.68
2019-04-03T10:12:55.868Z,58.04
2019-04-03T10:15:49.887Z,57.04
2019-04-03T10:18:23.410Z,56.68
2019-04-03T10:20:54.611Z,57.30
2019-04-03T10:23:29.224Z,56.44
2019-04-03T10:26:02.869Z,56.56
2019-04-03T10:28:34.539Z,54.81
2019-04-03T10:31:08.313Z,53.14
2019-04-03T10:33:39.747Z,54.51
2019-04-03T10:36:11.951Z,51.95
2019-04-03T10:38:43.623Z,52.42
2019-04-03T10:41:14.449Z,51.65
2019-04-03T10:43:46.997Z,51.21
2019-04-03T10:46:20.056Z,50.31
2019-04-03T10:48:51.251Z,48.87
2019-04-03T10:51:24.472Z,48.52
2019-04-03T10:53:59.856Z,47.22
2019-04-03T10:56:31.212Z,47.74
2019-04-03T10:59:10.995Z,47.39
2019-04-03T11:01:35.603Z,44.18
2019-04-03T11:04:07.822Z,45.32
2019-04-03T11:06:38.487Z,45.32
2019-04-03T11:09:12.278Z,46.90
2019-04-03T11:11:45.415Z,46.24
2019-04-03T11:14:17.846Z,44.36
2019-04-03T11:16:49.860Z,43.95
2019-04-03T11:19:27.058Z,44.18
2019-04-03T11:21:58.245Z,44.44
2019-04-03T11:24:29.417Z,44.93
2019-04-03T11:27:12.501Z,42.73
2019-04-03T11:29:47.328Z,43.19
2019-04-03T11:32:23.171Z,43.88
2019-04-03T11:34:54.513Z,43.29
2019-04-03T11:37:26.861Z,43.01
2019-04-03T11:40:26.310Z,42.23
2019-04-03T11:43:24.965Z,41.37
2019-04-03T11:45:59.559Z,42.70
2019-04-03T11:48:31.247Z,41.06
2019-04-03T11:51:04.216Z,42.34
2019-04-03T11:53:36.012Z,43.35
2019-04-03T11:56:07.531Z,43.66
2019-04-03T11:58:38.811Z,43.24
2019-04-03T12:01:10.965Z,43.80
2019-04-03T12:03:42.874Z,43.97
2019-04-03T12:06:20.222Z,43.57
2019-04-03T12:08:54.657Z,43.95
2019-04-03T12:11:25.504Z,44.39
2019-04-03T12:13:59.435Z,43.38
2019-04-03T12:16:31.111Z,44.62
2019-04-03T12:19:06.028Z,44.61
2019-04-03T12:21:42.343Z,43.28
2019-04-03T12:24:19.288Z,43.98
2019-04-03T12:26:50.477Z,44.74
2019-04-03T12:29:24.167Z,44.81
2019-04-03T12:32:02.778Z,47.17
2019-04-03T12:34:37.224Z,45.79
2019-04-03T12:37:10.598Z,46.46
2019-04-03T12:39:41.992Z,47.73
2019-04-03T12:42:17.725Z,46.75
2019-04-03T12:44:54.714Z,47.48
2019-04-03T12:47:28.444Z,47.15
2019-04-03T12:49:59.852Z,47.20
2019-04-03T12:52:31.355Z,46.56
2019-04-03T12:55:05.225Z,46.56
2019-04-03T12:57:38.714Z,48.35
2019-04-03T13:00:12.010Z,46.73
2019-04-03T13:02:52.498Z,46.95
2019-04-03T13:05:24.330Z,47.07
2019-04-03T13:07:59.574Z,46.65
2019-04-03T13:10:40.294Z,47.28
2019-04-03T13:13:03.444Z,47.71
2019-04-03T13:15:41.392Z,48.09
2019-04-03T13:18:39.315Z,47.54
2019-04-03T13:21:16.407Z,47.29
2019-04-03T13:23:47.806Z,46.46
2019-04-03T13:26:19.720Z,48.17
2019-04-03T13:28:51.429Z,48.39
2019-04-03T13:31:23.009Z,49.06
2019-04-03T13:33:58.183Z,48.16
2019-04-03T13:36:34.524Z,47.76
2019-04-03T13:39:07.534Z,45.75
2019-04-03T13:41:43.148Z,47.36
2019-04-03T13:44:20.960Z,46.34
2019-04-03T13:46:55.313Z,45.74
2019-04-03T13:49:29.324Z,46.49
2019-04-03T13:52:05.546Z,46.38
2019-04-03T13:54:39.592Z,45.16
2019-04-03T13:57:20.504Z,46.94
2019-04-03T14:00:00.980Z,46.67
2019-04-03T14:02:30.929Z,44.74
2019-04-03T14:05:02.997Z,45.57
2019-04-03T14:07:35.274Z,45.84
2019-04-03T14:10:11.977Z,48.21
2019-04-03T14:12:45.875Z,47.17
2019-04-03T14:15:20.404Z,44.90
2019-04-03T14:17:57.692Z,44.51
2019-04-03T14:20:30.147Z,45.04
2019-04-03T14:23:04.267Z,46.43
2019-04-03T14:25:39.192Z,46.64
2019-04-03T14:28:15.029Z,45.80
2019-04-03T14:30:51.883Z,44.32
2019-04-03T14:33:27.370Z,46.27
2019-04-03T14:36:02.461Z,48.54
2019-04-03T14:38:41.525Z,50.66
2019-04-03T14:41:17.305Z,50.02
2019-04-03T14:43:50.886Z,50.16
2019-04-03T14:46:31.841Z,50.83
2019-04-03T14:49:04.281Z,52.12
2019-04-03T14:51:36.439Z,52.81
2019-04-03T14:54:09.026Z,51.51
2019-04-03T14:56:48.169Z,52.24
2019-04-03T14:59:21.796Z,51.08
2019-04-03T15:01:56.242Z,53.29
2019-04-03T15:04:27.842Z,54.07
2019-04-03T15:07:08.862Z,54.78
2019-04-03T15:09:39.179Z,55.25
2019-04-03T15:12:13.513Z,54.14
2019-04-03T15:14:50.358Z,54.71
2019-04-03T15:17:22.543Z,50.68
2019-04-03T15:19:56.161Z,51.86
2019-04-03T15:22:28.212Z,50.13
2019-04-03T15:25:03.112Z,48.38
2019-04-03T15:27:34.717Z,48.64
2019-04-03T15:30:11.458Z,48.08
2019-04-03T15:32:51.459Z,47.85
2019-04-03T15:35:22.436Z,48.22
2019-04-03T15:37:57.514Z,47.23
2019-04-03T15:41:08.119Z,47.34
2019-04-03T15:43:53.726Z,48.42
2019-04-03T15:46:28.426Z,49.21
2019-04-03T15:49:04.182Z,49.00
2019-04-03T15:51:43.003Z,49.74
2019-04-03T15:54:31.462Z,49.21
2019-04-03T15:57:11.104Z,49.83
2019-04-03T15:59:42.351Z,48.93
2019-04-03T16:02:15.911Z,49.84
2019-04-03T16:04:50.921Z,50.74
2019-04-03T16:07:25.295Z,50.76
2019-04-03T16:09:57.957Z,50.86
2019-04-03T16:12:41.484Z,50.77
2019-04-03T16:15:10.591Z,50.24
2019-04-03T16:17:44.224Z,51.14
2019-04-03T16:20:19.543Z,51.25
2019-04-03T16:22:54.834Z,51.39
2019-04-03T16:25:26.662Z,52.82
2019-04-03T16:28:34.492Z,52.00
2019-04-03T16:32:18.188Z,52.37
2019-04-03T16:35:15.247Z,53.12
2019-04-03T16:37:49.647Z,54.08
2019-04-03T16:40:21.649Z,53.24
2019-04-03T16:42:55.241Z,53.35
2019-04-03T16:45:27.550Z,53.47
2019-04-03T16:48:04.290Z,54.19
2019-04-03T16:50:37.508Z,54.38
2019-04-03T16:53:19.209Z,54.82
2019-04-03T16:55:51.941Z,55.06
2019-04-03T16:58:27.714Z,55.45
2019-04-03T17:01:04.206Z,56.04
2019-04-03T17:03:44.820Z,55.81
2019-04-03T17:06:17.450Z,56.30
2019-04-03T17:08:57.992Z,56.02
2019-04-03T17:11:31.503Z,56.12
2019-04-03T17:14:06.430Z,56.61
2019-04-03T17:16:39.076Z,56.81
2019-04-03T17:19:12.305Z,57.37
2019-04-03T17:21:44.074Z,58.41
2019-04-03T17:24:21.299Z,58.75
2019-04-03T17:26:57.339Z,59.42
2019-04-03T17:29:30.939Z,60.27
2019-04-03T17:32:02.664Z,60.27
2019-04-03T17:34:41.932Z,60.56
2019-04-03T17:37:19.123Z,60.44
2019-04-03T17:39:52.553Z,60.71
2019-04-03T17:42:41.933Z,60.61
2019-04-03T17:45:23.383Z,61.54
2019-04-03T17:47:55.764Z,61.94
2019-04-03T17:50:29.707Z,62.12
2019-04-03T17:53:08.742Z,63.20
2019-04-03T17:55:53.199Z,63.80
2019-04-03T17:58:26.727Z,64.43
2019-04-03T18:00:59.403Z,64.39
2019-04-03T18:03:33.138Z,63.66
2019-04-03T18:06:11.455Z,64.55
2019-04-03T18:08:43.500Z,64.48
2019-04-03T18:11:20.836Z,64.31
2019-04-03T18:14:03.291Z,64.53
2019-04-03T18:16:40.254Z,64.44
2019-04-03T18:19:20.626Z,65.07
2019-04-03T18:21:57.623Z,65.27
2019-04-03T18:24:39.067Z,65.23
2019-04-03T18:27:13.811Z,66.04
2019-04-03T18:29:45.657Z,65.94
2019-04-03T18:32:17.582Z,66.16
2019-04-03T18:34:55.566Z,67.13
2019-04-03T18:37:29.351Z,67.28
2019-04-03T18:40:01.452Z,67.89
2019-04-03T18:42:37.863Z,68.47
2019-04-03T18:45:24.678Z,68.29
2019-04-03T18:47:51.035Z,68.32
2019-04-03T18:50:23.117Z,68.67
2019-04-03T18:53:06.229Z,68.97
2019-04-03T18:55:40.697Z,68.76
2019-04-03T18:58:27.909Z,67.97
2019-04-03T19:01:02.352Z,68.46
2019-04-03T19:03:40.748Z,68.35
2019-04-03T19:06:13.696Z,68.51
2019-04-03T19:08:45.924Z,68.38
2019-04-03T19:11:25.969Z,68.26
2019-04-03T19:13:59.081Z,68.24
2019-04-03T19:16:45.010Z,68.32
2019-04-03T19:19:12.397Z,68.67
2019-04-03T19:21:57.785Z,68.95
2019-04-03T19:24:30.100Z,68.89
2019-04-03T19:27:08.179Z,68.98
2019-04-03T19:29:53.957Z,68.65
2019-04-03T19:32:27.969Z,69.30
2019-04-03T19:35:21.174Z,70.34
2019-04-03T19:37:45.146Z,70.97
2019-04-03T19:40:17.698Z,71.02
2019-04-03T19:42:52.831Z,71.37
2019-04-03T19:45:29.343Z,72.13
2019-04-03T19:48:07.733Z,72.81
2019-04-03T19:50:50.474Z,72.53
2019-04-03T19:53:24.577Z,72.50
2019-04-03T19:56:10.165Z,73.45
2019-04-03T19:58:42.438Z,73.64
2019-04-03T20:01:17.565Z,73.67
2019-04-03T20:03:50.291Z,73.56
2019-04-03T20:06:22.910Z,74.12
2019-04-03T20:09:00.979Z,73.79
2019-04-03T20:11:35.912Z,73.20
2019-04-03T20:14:16.357Z,72.87
2019-04-03T20:16:48.068Z,74.05
2019-04-03T20:19:19.846Z,72.80
2019-04-03T20:21:51.652Z,72.11
2019-04-03T20:24:25.268Z,70.78
2019-04-03T20:26:57.918Z,69.30
2019-04-03T20:29:31.810Z,68.68
2019-04-03T20:32:05.053Z,67.84
2019-04-03T20:34:40.515Z,67.42
2019-04-03T20:37:26.019Z,67.02
2019-04-03T20:39:55.674Z,67.25
2019-04-03T20:42:30.890Z,66.88
2019-04-03T20:45:02.414Z,66.31
2019-04-03T20:47:36.362Z,66.15
2019-04-03T20:50:16.146Z,66.16
2019-04-03T20:52:47.667Z,66.34
2019-04-03T20:55:19.534Z,66.70
2019-04-03T20:57:55.924Z,66.96
2019-04-03T21:00:24.640Z,66.62
2019-04-03T21:02:55.964Z,66.78
2019-04-03T21:05:28.112Z,66.66
2019-04-03T21:07:58.945Z,66.62
2019-04-03T21:10:31.438Z,66.14
2019-04-03T21:13:03.553Z,65.71
2019-04-03T21:15:37.456Z,65.38
2019-04-03T21:18:09.337Z,65.09
2019-04-03T21:20:41.138Z,64.36
2019-04-03T21:23:18.565Z,64.43
2019-04-03T21:25:50.227Z,64.17
2019-04-03T21:28:21.098Z,63.91
2019-04-03T21:30:53.098Z,63.96
2019-04-03T21:33:25.095Z,63.71
2019-04-03T21:35:57.930Z,62.85
2019-04-03T21:38:29.994Z,62.23
2019-04-03T21:41:01.943Z,62.93
2019-04-03T21:43:33.899Z,62.39
2019-04-03T21:46:08.930Z,62.64
2019-04-03T21:48:40.756Z,62.91
2019-04-03T21:51:20.888Z,63.19
2019-04-03T21:53:56.585Z,63.45
2019-04-03T21:56:36.337Z,62.99
2019-04-03T21:59:10.946Z,63.31
2019-04-03T22:01:45.237Z,63.28
2019-04-03T22:04:15.308Z,62.54
2019-04-03T22:06:47.645Z,62.42
2019-04-03T22:09:23.837Z,62.59
2019-04-03T22:11:56.376Z,63.02
2019-04-03T22:14:34.677Z,63.20
2019-04-03T22:17:05.607Z,63.75
2019-04-03T22:19:36.458Z,64.25
2019-04-03T22:22:07.295Z,63.52
2019-04-03T22:24:38.418Z,63.49
2019-04-03T22:27:12.829Z,64.46
2019-04-03T22:29:50.892Z,63.95
2019-04-03T22:32:23.067Z,64.40
2019-04-03T22:35:07.366Z,65.04
2019-04-03T22:37:39.608Z,63.91
2019-04-03T22:40:13.405Z,63.35
2019-04-03T22:42:45.537Z,63.54
2019-04-03T22:45:18.072Z,63.56
2019-04-03T22:47:50.007Z,64.38
2019-04-03T22:50:21.102Z,64.52
2019-04-03T22:52:52.115Z,64.51
2019-04-03T22:55:26.610Z,65.34
2019-04-03T22:57:57.453Z,64.72
2019-04-03T23:00:29.388Z,65.73
2019-04-03T23:03:13.257Z,65.47
2019-04-03T23:05:48.522Z,65.47
2019-04-03T23:08:20.941Z,65.13
2019-04-03T23:10:52.954Z,65.37
2019-04-03T23:13:23.866Z,65.51
2019-04-03T23:15:54.745Z,65.87
2019-04-03T23:18:27.159Z,65.90
2019-04-03T23:20:58.099Z,65.71
2019-04-03T23:23:29.499Z,66.41
2019-04-03T23:26:03.631Z,67.32
2019-04-03T23:28:34.598Z,68.16
2019-04-03T23:31:05.489Z,68.46
2019-04-03T23:33:36.377Z,68.90
2019-04-03T23:36:07.279Z,68.37
2019-04-03T23:38:38.599Z,68.00
2019-04-03T23:41:12.197Z,67.85
2019-04-03T23:43:43.083Z,67.73
2019-04-03T23:46:14.691Z,67.65
2019-04-03T23:48:47.024Z,66.35
2019-04-03T23:51:23.337Z,65.81
2019-04-03T23:53:52.378Z,66.59
2019-04-03T23:56:23.346Z,66.64
2019-04-03T23:58:54.221Z,67.83
